Aérodrome :
LOGIN :

S'inscrire | Disclaimer

   EN    FR    IT 

 










Légende :    VFR   VFR Marginal   IFR   IFR Intensif   IFR Très Intensif
Visi : 
Plafond : 
>= 8 km
>= 3000ft
5 à 8 km
1000 à 3000 ft
1500m à 5 km
500 à 1000 ft
800 à 1500m
200 à 500 ft
< 800m
< 200 ft
Symboles :   Orages  Brouillard  Fortes neiges  Fortes précipitations  Vent > 20 kt
SIGMETs :   Divers  Orages  Givrage  Turbulence  Onde Orograph.  Cendres Volcan.







- Altitude de l'aérodrome : 1504 ft
- Code IATA : PNA


LEPP - Noain Pamplona

DERNIER METAR :
  • 241530Z 29003KT 260V330 9999 FEW040 23/14 Q1015

METARs EXPIRÉS :
  • 241500Z VRB02KT 9999 FEW040 24/14 Q1015
  • 241400Z 01002KT 9999 FEW040 25/15 Q1015
  • 241330Z 04004KT 330V100 9999 FEW040 24/14 Q1016
  • 241300Z 32003KT 9999 FEW040 24/13 Q1016

TAF TAF LEPP
Valide du 24 à 09h jusqu'au 25 à 09h UTC


240800Z 2409/2509 VRB06KT 9999 SCT030 BKN050 TX27/2414Z TN12/2505Z
PROB30
TEMPO 2409/2413 SHRA SCT020TCU
TEMPO 2413/2422 3000 SHRA BKN025TCU
PROB40
TEMPO 2412/2422 VRB15G30KT 1400 TSRA BKN025CB
PROB40
TEMPO 2500/2505 3000 BR
PROB30
TEMPO 2506/2509 SHRA TS SCT030CB
Pas de NOTAMs connus pour ce terrain.
1 SIGMET publié pour la FIR Madrid (LECM) :
 
Orages noyés dans la masse
LECM SIGMET 12 VALID 241500/241800 LEVA
LECM MADRID FIR/UIR EMBD TS FCST WI N3740 W00710 - N3740 W00320 - N4120 W00150 - N4320 W00210 - N4320 W00810 - N42 W00910 - N4150 W00610 - N3740 W00710 TOP FL340 MOV N 15KT NC=



MET'MAP, la Météo Aéronautique d'un coup d'oeil ! - Copyright ORBIFLY Décembre 2007 - Disclaimer

ORBIFLY MET'MAP TEAM :

Programmation & Développement : Alexandra Zaïnal
Conception & Développement : Baudouin d'Aumeries
Co-Programmation & Développement : Marc-Olivier Méhu
Soutien technique & logistique : Manuel Goepfert

Contact : metmap@orbifly.com




SOURCES & CREDITS :

   NOAA